Port Saunders, Canada
Current Conditions -  °F | °C
As of 3:00 PM on Thursday 23 Oct 2014 (Local Time) from CWDH Reporting Station
Clear Clear  
Wind Chill:   Ceiling: Unl
Heat Index:   Visibility: 9mi
Dew Point:   Wind: 6mph
Humidity: 63%   Direction: 270°W
Pressure: 30.26"   Gusts: NA
Location:  50.65°N, 57.27°W
Report Text: CWDH 231700Z AUTO 27005KT 9SM NSC 08/01 A3026 RMK SLP249 T00770010 WSI/SWOB
Loading
Personal Weather Stations






























Interactive Weather Map
Tropical Storm Tracking
New forecast layout! Learn more

10-Day Weather Forecast

Advertisements
Track Severe Weather on mobile